sensor_id;sensor_type;location;lat;lon;timestamp;P1;durP1;ratioP1;P2;durP2;ratioP2
65613;SDS011;52283;49.292;10.572;2022-12-11T00:00:24;52.42;;;21.20;;
65613;SDS011;52283;49.292;10.572;2022-12-11T00:02:51;47.83;;;21.58;;
65613;SDS011;52283;49.292;10.572;2022-12-11T00:05:19;57.25;;;22.63;;
65613;SDS011;52283;49.292;10.572;2022-12-11T00:07:45;60.17;;;23.23;;
65613;SDS011;52283;49.292;10.572;2022-12-11T00:10:11;60.97;;;23.25;;
65613;SDS011;52283;49.292;10.572;2022-12-11T00:12:38;61.42;;;21.90;;
65613;SDS011;52283;49.292;10.572;2022-12-11T00:15:05;53.88;;;19.80;;
65613;SDS011;52283;49.292;10.572;2022-12-11T00:17:32;56.72;;;22.73;;
65613;SDS011;52283;49.292;10.572;2022-12-11T00:19:58;59.20;;;21.45;;
65613;SDS011;52283;49.292;10.572;2022-12-11T00:22:26;62.22;;;23.50;;
65613;SDS011;52283;49.292;10.572;2022-12-11T00:24:54;64.63;;;21.75;;
65613;SDS011;52283;49.292;10.572;2022-12-11T00:27:21;55.75;;;21.13;;
65613;SDS011;52283;49.292;10.572;2022-12-11T00:29:48;57.63;;;22.70;;
65613;SDS011;52283;49.292;10.572;2022-12-11T00:32:14;59.92;;;23.55;;
65613;SDS011;52283;49.292;10.572;2022-12-11T00:34:41;59.42;;;24.30;;
65613;SDS011;52283;49.292;10.572;2022-12-11T00:37:07;61.45;;;22.30;;
65613;SDS011;52283;49.292;10.572;2022-12-11T00:39:35;61.75;;;21.77;;
65613;SDS011;52283;49.292;10.572;2022-12-11T00:42:02;54.45;;;21.75;;
65613;SDS011;52283;49.292;10.572;2022-12-11T00:44:28;57.38;;;21.75;;
65613;SDS011;52283;49.292;10.572;2022-12-11T00:46:54;56.40;;;21.95;;
65613;SDS011;52283;49.292;10.572;2022-12-11T00:49:21;54.67;;;22.30;;
65613;SDS011;52283;49.292;10.572;2022-12-11T00:51:47;57.65;;;22.58;;
65613;SDS011;52283;49.292;10.572;2022-12-11T00:54:14;54.80;;;21.00;;
65613;SDS011;52283;49.292;10.572;2022-12-11T00:56:42;49.88;;;18.80;;
65613;SDS011;52283;49.292;10.572;2022-12-11T00:59:08;51.95;;;20.00;;
65613;SDS011;52283;49.292;10.572;2022-12-11T01:01:35;53.50;;;21.38;;
65613;SDS011;52283;49.292;10.572;2022-12-11T01:04:01;51.45;;;20.20;;
65613;SDS011;52283;49.292;10.572;2022-12-11T01:06:28;43.00;;;20.45;;
65613;SDS011;52283;49.292;10.572;2022-12-11T01:08:55;44.10;;;18.42;;
65613;SDS011;52283;49.292;10.572;2022-12-11T01:11:36;47.90;;;20.00;;
65613;SDS011;52283;49.292;10.572;2022-12-11T01:14:04;49.22;;;22.92;;
65613;SDS011;52283;49.292;10.572;2022-12-11T01:16:31;38.50;;;17.10;;
65613;SDS011;52283;49.292;10.572;2022-12-11T01:18:57;41.15;;;18.20;;
65613;SDS011;52283;49.292;10.572;2022-12-11T01:21:24;45.60;;;20.58;;
65613;SDS011;52283;49.292;10.572;2022-12-11T01:23:51;35.53;;;15.40;;
65613;SDS011;52283;49.292;10.572;2022-12-11T01:26:18;44.92;;;18.35;;
65613;SDS011;52283;49.292;10.572;2022-12-11T01:28:47;42.75;;;17.98;;
65613;SDS011;52283;49.292;10.572;2022-12-11T01:31:15;40.88;;;18.90;;
65613;SDS011;52283;49.292;10.572;2022-12-11T01:33:42;43.05;;;18.83;;
65613;SDS011;52283;49.292;10.572;2022-12-11T01:36:10;39.75;;;18.30;;
65613;SDS011;52283;49.292;10.572;2022-12-11T01:38:38;43.15;;;17.50;;
65613;SDS011;52283;49.292;10.572;2022-12-11T01:41:05;35.40;;;15.23;;
65613;SDS011;52283;49.292;10.572;2022-12-11T01:43:34;25.40;;;12.32;;
65613;SDS011;52283;49.292;10.572;2022-12-11T01:46:00;33.45;;;15.35;;
65613;SDS011;52283;49.292;10.572;2022-12-11T01:48:29;34.60;;;13.43;;
65613;SDS011;52283;49.292;10.572;2022-12-11T01:50:58;24.17;;;12.95;;
65613;SDS011;52283;49.292;10.572;2022-12-11T01:53:28;28.48;;;11.95;;
65613;SDS011;52283;49.292;10.572;2022-12-11T01:58:26;25.60;;;11.95;;
65613;SDS011;52283;49.292;10.572;2022-12-11T02:00:56;23.45;;;10.82;;
65613;SDS011;52283;49.292;10.572;2022-12-11T02:03:23;27.45;;;12.20;;
65613;SDS011;52283;49.292;10.572;2022-12-11T02:05:51;26.67;;;11.70;;
65613;SDS011;52283;49.292;10.572;2022-12-11T02:08:18;27.90;;;12.88;;
65613;SDS011;52283;49.292;10.572;2022-12-11T02:10:50;24.70;;;10.90;;
65613;SDS011;52283;49.292;10.572;2022-12-11T02:13:28;28.55;;;10.95;;
65613;SDS011;52283;49.292;10.572;2022-12-11T02:16:04;23.27;;;10.73;;
65613;SDS011;52283;49.292;10.572;2022-12-11T02:18:35;29.92;;;13.43;;
65613;SDS011;52283;49.292;10.572;2022-12-11T02:21:09;23.73;;;11.30;;
65613;SDS011;52283;49.292;10.572;2022-12-11T02:23:50;28.77;;;13.27;;
65613;SDS011;52283;49.292;10.572;2022-12-11T02:26:30;25.30;;;11.05;;
65613;SDS011;52283;49.292;10.572;2022-12-11T02:29:16;31.42;;;12.70;;
65613;SDS011;52283;49.292;10.572;2022-12-11T02:31:48;26.45;;;13.10;;
65613;SDS011;52283;49.292;10.572;2022-12-11T02:34:20;28.48;;;12.60;;
65613;SDS011;52283;49.292;10.572;2022-12-11T02:36:55;27.13;;;11.32;;
65613;SDS011;52283;49.292;10.572;2022-12-11T02:39:25;22.77;;;10.85;;
65613;SDS011;52283;49.292;10.572;2022-12-11T02:41:53;20.90;;;11.02;;
65613;SDS011;52283;49.292;10.572;2022-12-11T02:44:23;26.38;;;11.90;;
65613;SDS011;52283;49.292;10.572;2022-12-11T02:46:53;26.73;;;11.55;;
65613;SDS011;52283;49.292;10.572;2022-12-11T02:49:20;25.80;;;11.27;;
65613;SDS011;52283;49.292;10.572;2022-12-11T02:51:49;28.42;;;12.25;;
65613;SDS011;52283;49.292;10.572;2022-12-11T02:54:18;22.63;;;10.30;;
65613;SDS011;52283;49.292;10.572;2022-12-11T02:56:49;24.40;;;10.80;;
65613;SDS011;52283;49.292;10.572;2022-12-11T02:59:20;25.42;;;12.57;;
65613;SDS011;52283;49.292;10.572;2022-12-11T03:01:54;27.75;;;12.13;;
65613;SDS011;52283;49.292;10.572;2022-12-11T03:04:20;24.60;;;12.45;;
65613;SDS011;52283;49.292;10.572;2022-12-11T03:06:49;24.02;;;11.68;;
65613;SDS011;52283;49.292;10.572;2022-12-11T03:09:19;25.02;;;11.80;;
65613;SDS011;52283;49.292;10.572;2022-12-11T03:11:46;22.88;;;11.55;;
65613;SDS011;52283;49.292;10.572;2022-12-11T03:14:12;23.85;;;9.95;;
65613;SDS011;52283;49.292;10.572;2022-12-11T03:16:41;25.90;;;13.07;;
65613;SDS011;52283;49.292;10.572;2022-12-11T03:19:21;26.02;;;11.10;;
65613;SDS011;52283;49.292;10.572;2022-12-11T03:21:53;21.67;;;9.50;;
65613;SDS011;52283;49.292;10.572;2022-12-11T03:24:26;23.90;;;12.27;;
65613;SDS011;52283;49.292;10.572;2022-12-11T03:26:56;21.77;;;10.82;;
65613;SDS011;52283;49.292;10.572;2022-12-11T03:29:28;24.45;;;11.63;;
65613;SDS011;52283;49.292;10.572;2022-12-11T03:32:03;21.65;;;9.07;;
65613;SDS011;52283;49.292;10.572;2022-12-11T03:34:36;22.13;;;10.05;;
65613;SDS011;52283;49.292;10.572;2022-12-11T03:37:08;24.13;;;10.40;;
65613;SDS011;52283;49.292;10.572;2022-12-11T03:39:36;19.60;;;9.60;;
65613;SDS011;52283;49.292;10.572;2022-12-11T03:42:07;21.88;;;10.20;;
65613;SDS011;52283;49.292;10.572;2022-12-11T03:44:36;21.33;;;9.27;;
65613;SDS011;52283;49.292;10.572;2022-12-11T03:47:06;19.30;;;9.65;;
65613;SDS011;52283;49.292;10.572;2022-12-11T03:49:35;19.25;;;10.38;;
65613;SDS011;52283;49.292;10.572;2022-12-11T03:52:05;19.55;;;10.20;;
65613;SDS011;52283;49.292;10.572;2022-12-11T03:54:34;22.08;;;10.32;;
65613;SDS011;52283;49.292;10.572;2022-12-11T03:57:01;21.38;;;10.38;;
65613;SDS011;52283;49.292;10.572;2022-12-11T03:59:30;18.08;;;8.98;;
65613;SDS011;52283;49.292;10.572;2022-12-11T04:01:57;18.85;;;8.55;;
65613;SDS011;52283;49.292;10.572;2022-12-11T04:04:25;18.42;;;9.63;;
65613;SDS011;52283;49.292;10.572;2022-12-11T04:06:51;18.98;;;9.25;;
65613;SDS011;52283;49.292;10.572;2022-12-11T04:09:18;18.20;;;8.27;;
65613;SDS011;52283;49.292;10.572;2022-12-11T04:11:44;19.85;;;10.68;;
65613;SDS011;52283;49.292;10.572;2022-12-11T04:14:11;20.33;;;10.38;;
65613;SDS011;52283;49.292;10.572;2022-12-11T04:16:57;19.75;;;10.18;;
65613;SDS011;52283;49.292;10.572;2022-12-11T04:19:26;24.63;;;9.77;;
65613;SDS011;52283;49.292;10.572;2022-12-11T04:22:10;16.30;;;9.52;;
65613;SDS011;52283;49.292;10.572;2022-12-11T04:24:55;18.88;;;9.15;;
65613;SDS011;52283;49.292;10.572;2022-12-11T04:27:22;20.67;;;10.00;;
65613;SDS011;52283;49.292;10.572;2022-12-11T04:30:07;21.98;;;9.68;;
65613;SDS011;52283;49.292;10.572;2022-12-11T04:32:36;19.43;;;8.83;;
65613;SDS011;52283;49.292;10.572;2022-12-11T04:35:04;17.58;;;9.20;;
65613;SDS011;52283;49.292;10.572;2022-12-11T04:37:31;24.77;;;12.52;;
65613;SDS011;52283;49.292;10.572;2022-12-11T04:39:58;21.58;;;10.90;;
65613;SDS011;52283;49.292;10.572;2022-12-11T04:42:25;21.75;;;11.00;;
65613;SDS011;52283;49.292;10.572;2022-12-11T04:44:51;20.77;;;11.65;;
65613;SDS011;52283;49.292;10.572;2022-12-11T04:47:18;20.67;;;10.05;;
65613;SDS011;52283;49.292;10.572;2022-12-11T04:49:44;22.73;;;10.98;;
65613;SDS011;52283;49.292;10.572;2022-12-11T04:52:12;19.40;;;10.02;;
65613;SDS011;52283;49.292;10.572;2022-12-11T04:54:38;20.83;;;10.57;;
65613;SDS011;52283;49.292;10.572;2022-12-11T04:57:05;21.40;;;10.80;;
65613;SDS011;52283;49.292;10.572;2022-12-11T04:59:31;27.15;;;10.88;;
65613;SDS011;52283;49.292;10.572;2022-12-11T05:01:58;22.20;;;9.95;;
65613;SDS011;52283;49.292;10.572;2022-12-11T05:04:25;20.05;;;10.45;;
65613;SDS011;52283;49.292;10.572;2022-12-11T05:06:55;21.35;;;9.90;;
65613;SDS011;52283;49.292;10.572;2022-12-11T05:09:23;23.33;;;12.07;;
65613;SDS011;52283;49.292;10.572;2022-12-11T05:11:50;22.33;;;11.15;;
65613;SDS011;52283;49.292;10.572;2022-12-11T05:14:16;25.88;;;11.68;;
65613;SDS011;52283;49.292;10.572;2022-12-11T05:16:43;24.35;;;11.48;;
65613;SDS011;52283;49.292;10.572;2022-12-11T05:19:09;21.52;;;11.20;;
65613;SDS011;52283;49.292;10.572;2022-12-11T05:21:36;18.55;;;9.48;;
65613;SDS011;52283;49.292;10.572;2022-12-11T05:24:02;14.30;;;8.20;;
65613;SDS011;52283;49.292;10.572;2022-12-11T05:26:31;17.40;;;8.13;;
65613;SDS011;52283;49.292;10.572;2022-12-11T05:28:57;18.33;;;9.82;;
65613;SDS011;52283;49.292;10.572;2022-12-11T05:31:24;19.65;;;8.63;;
65613;SDS011;52283;49.292;10.572;2022-12-11T05:33:52;18.92;;;9.05;;
65613;SDS011;52283;49.292;10.572;2022-12-11T05:36:20;20.52;;;9.00;;
65613;SDS011;52283;49.292;10.572;2022-12-11T05:38:49;16.30;;;8.82;;
65613;SDS011;52283;49.292;10.572;2022-12-11T05:41:16;18.98;;;10.25;;
65613;SDS011;52283;49.292;10.572;2022-12-11T05:43:45;19.05;;;8.30;;
65613;SDS011;52283;49.292;10.572;2022-12-11T05:46:13;19.60;;;8.25;;
65613;SDS011;52283;49.292;10.572;2022-12-11T05:48:41;21.65;;;10.13;;
65613;SDS011;52283;49.292;10.572;2022-12-11T05:51:08;17.30;;;8.20;;
65613;SDS011;52283;49.292;10.572;2022-12-11T05:53:36;21.10;;;9.63;;
65613;SDS011;52283;49.292;10.572;2022-12-11T05:56:04;17.33;;;9.18;;
65613;SDS011;52283;49.292;10.572;2022-12-11T05:58:31;20.38;;;9.40;;
65613;SDS011;52283;49.292;10.572;2022-12-11T06:01:00;25.90;;;11.20;;
65613;SDS011;52283;49.292;10.572;2022-12-11T06:03:27;15.60;;;8.13;;
65613;SDS011;52283;49.292;10.572;2022-12-11T06:05:54;23.35;;;11.73;;
65613;SDS011;52283;49.292;10.572;2022-12-11T06:08:20;20.63;;;10.93;;
65613;SDS011;52283;49.292;10.572;2022-12-11T06:10:47;25.00;;;11.88;;
65613;SDS011;52283;49.292;10.572;2022-12-11T06:13:15;22.13;;;10.68;;
65613;SDS011;52283;49.292;10.572;2022-12-11T06:15:42;30.08;;;14.45;;
65613;SDS011;52283;49.292;10.572;2022-12-11T06:18:10;27.85;;;13.45;;
65613;SDS011;52283;49.292;10.572;2022-12-11T06:20:36;26.67;;;13.73;;
65613;SDS011;52283;49.292;10.572;2022-12-11T06:23:03;26.13;;;12.45;;
65613;SDS011;52283;49.292;10.572;2022-12-11T06:25:30;29.13;;;13.43;;
65613;SDS011;52283;49.292;10.572;2022-12-11T06:27:57;31.08;;;15.63;;
65613;SDS011;52283;49.292;10.572;2022-12-11T06:30:24;26.70;;;12.55;;
65613;SDS011;52283;49.292;10.572;2022-12-11T06:32:50;29.63;;;15.25;;
65613;SDS011;52283;49.292;10.572;2022-12-11T06:35:18;37.38;;;16.58;;
65613;SDS011;52283;49.292;10.572;2022-12-11T06:37:44;29.67;;;14.50;;
65613;SDS011;52283;49.292;10.572;2022-12-11T06:40:11;25.08;;;12.80;;
65613;SDS011;52283;49.292;10.572;2022-12-11T06:42:37;26.10;;;12.88;;
65613;SDS011;52283;49.292;10.572;2022-12-11T06:45:04;24.70;;;12.60;;
65613;SDS011;52283;49.292;10.572;2022-12-11T06:47:31;26.48;;;11.98;;
65613;SDS011;52283;49.292;10.572;2022-12-11T06:49:58;28.15;;;11.68;;
65613;SDS011;52283;49.292;10.572;2022-12-11T06:52:26;28.10;;;12.65;;
65613;SDS011;52283;49.292;10.572;2022-12-11T06:54:53;27.50;;;11.27;;
65613;SDS011;52283;49.292;10.572;2022-12-11T06:57:20;25.73;;;11.43;;
65613;SDS011;52283;49.292;10.572;2022-12-11T06:59:47;24.10;;;11.15;;
65613;SDS011;52283;49.292;10.572;2022-12-11T07:02:15;25.95;;;10.27;;
65613;SDS011;52283;49.292;10.572;2022-12-11T07:04:42;23.60;;;10.65;;
65613;SDS011;52283;49.292;10.572;2022-12-11T07:07:09;31.05;;;12.30;;
65613;SDS011;52283;49.292;10.572;2022-12-11T07:09:38;29.15;;;12.30;;
65613;SDS011;52283;49.292;10.572;2022-12-11T07:12:05;26.27;;;12.23;;
65613;SDS011;52283;49.292;10.572;2022-12-11T07:14:33;32.65;;;13.27;;
65613;SDS011;52283;49.292;10.572;2022-12-11T07:16:59;25.60;;;12.85;;
65613;SDS011;52283;49.292;10.572;2022-12-11T07:19:26;27.48;;;12.70;;
65613;SDS011;52283;49.292;10.572;2022-12-11T07:21:52;28.13;;;14.23;;
65613;SDS011;52283;49.292;10.572;2022-12-11T07:24:19;28.65;;;14.57;;
65613;SDS011;52283;49.292;10.572;2022-12-11T07:26:47;23.25;;;11.48;;
65613;SDS011;52283;49.292;10.572;2022-12-11T07:29:13;27.42;;;12.15;;
65613;SDS011;52283;49.292;10.572;2022-12-11T07:31:40;33.10;;;13.95;;
65613;SDS011;52283;49.292;10.572;2022-12-11T07:34:06;35.20;;;17.23;;
65613;SDS011;52283;49.292;10.572;2022-12-11T07:36:33;31.65;;;15.18;;
65613;SDS011;52283;49.292;10.572;2022-12-11T07:38:59;35.95;;;15.60;;
65613;SDS011;52283;49.292;10.572;2022-12-11T07:41:26;31.45;;;15.60;;
65613;SDS011;52283;49.292;10.572;2022-12-11T07:43:54;32.42;;;15.18;;
65613;SDS011;52283;49.292;10.572;2022-12-11T07:46:22;32.00;;;14.35;;
65613;SDS011;52283;49.292;10.572;2022-12-11T07:48:50;35.45;;;14.43;;
65613;SDS011;52283;49.292;10.572;2022-12-11T07:51:18;31.02;;;15.32;;
65613;SDS011;52283;49.292;10.572;2022-12-11T07:53:47;36.22;;;15.30;;
65613;SDS011;52283;49.292;10.572;2022-12-11T07:56:15;27.23;;;12.65;;
65613;SDS011;52283;49.292;10.572;2022-12-11T07:58:43;30.92;;;13.23;;
65613;SDS011;52283;49.292;10.572;2022-12-11T08:01:11;27.58;;;13.02;;
65613;SDS011;52283;49.292;10.572;2022-12-11T08:03:40;31.23;;;13.88;;
65613;SDS011;52283;49.292;10.572;2022-12-11T08:06:07;31.50;;;15.93;;
65613;SDS011;52283;49.292;10.572;2022-12-11T08:08:33;25.25;;;13.40;;
65613;SDS011;52283;49.292;10.572;2022-12-11T08:11:00;31.80;;;13.48;;
65613;SDS011;52283;49.292;10.572;2022-12-11T08:13:26;29.60;;;13.88;;
65613;SDS011;52283;49.292;10.572;2022-12-11T08:15:53;30.70;;;14.60;;
65613;SDS011;52283;49.292;10.572;2022-12-11T08:18:21;32.78;;;14.27;;
65613;SDS011;52283;49.292;10.572;2022-12-11T08:20:47;30.65;;;14.57;;
65613;SDS011;52283;49.292;10.572;2022-12-11T08:23:14;29.55;;;14.43;;
65613;SDS011;52283;49.292;10.572;2022-12-11T08:25:40;34.40;;;14.18;;
65613;SDS011;52283;49.292;10.572;2022-12-11T08:28:07;25.23;;;12.52;;
65613;SDS011;52283;49.292;10.572;2022-12-11T08:30:33;33.05;;;15.02;;
65613;SDS011;52283;49.292;10.572;2022-12-11T08:33:00;31.65;;;13.90;;
65613;SDS011;52283;49.292;10.572;2022-12-11T08:35:28;30.80;;;14.15;;
65613;SDS011;52283;49.292;10.572;2022-12-11T08:37:54;36.35;;;15.20;;
65613;SDS011;52283;49.292;10.572;2022-12-11T08:40:21;36.38;;;15.95;;
65613;SDS011;52283;49.292;10.572;2022-12-11T08:42:47;45.03;;;18.23;;
65613;SDS011;52283;49.292;10.572;2022-12-11T08:45:14;38.92;;;17.40;;
65613;SDS011;52283;49.292;10.572;2022-12-11T08:47:40;37.80;;;16.55;;
65613;SDS011;52283;49.292;10.572;2022-12-11T08:50:07;37.50;;;16.40;;
65613;SDS011;52283;49.292;10.572;2022-12-11T08:52:35;36.10;;;17.55;;
65613;SDS011;52283;49.292;10.572;2022-12-11T08:55:02;37.42;;;17.77;;
65613;SDS011;52283;49.292;10.572;2022-12-11T08:57:29;39.63;;;17.20;;
65613;SDS011;52283;49.292;10.572;2022-12-11T08:59:55;42.17;;;18.42;;
65613;SDS011;52283;49.292;10.572;2022-12-11T09:02:22;37.80;;;17.17;;
65613;SDS011;52283;49.292;10.572;2022-12-11T09:04:48;38.45;;;16.95;;
65613;SDS011;52283;49.292;10.572;2022-12-11T09:07:15;35.70;;;16.77;;
65613;SDS011;52283;49.292;10.572;2022-12-11T09:09:43;42.15;;;17.65;;
65613;SDS011;52283;49.292;10.572;2022-12-11T09:12:09;41.00;;;17.95;;
65613;SDS011;52283;49.292;10.572;2022-12-11T09:14:36;51.50;;;22.58;;
65613;SDS011;52283;49.292;10.572;2022-12-11T09:17:02;32.22;;;14.60;;
65613;SDS011;52283;49.292;10.572;2022-12-11T09:19:30;39.92;;;15.90;;
65613;SDS011;52283;49.292;10.572;2022-12-11T09:21:56;33.85;;;15.80;;
65613;SDS011;52283;49.292;10.572;2022-12-11T09:24:23;36.67;;;15.27;;
65613;SDS011;52283;49.292;10.572;2022-12-11T09:26:51;63.90;;;29.17;;
65613;SDS011;52283;49.292;10.572;2022-12-11T09:29:18;42.47;;;20.10;;
65613;SDS011;52283;49.292;10.572;2022-12-11T09:31:45;74.07;;;36.03;;
65613;SDS011;52283;49.292;10.572;2022-12-11T09:34:13;40.15;;;20.65;;
65613;SDS011;52283;49.292;10.572;2022-12-11T09:36:40;31.30;;;14.82;;
65613;SDS011;52283;49.292;10.572;2022-12-11T09:39:08;39.78;;;16.83;;
65613;SDS011;52283;49.292;10.572;2022-12-11T09:41:38;50.20;;;20.75;;
65613;SDS011;52283;49.292;10.572;2022-12-11T09:44:18;33.42;;;15.30;;
65613;SDS011;52283;49.292;10.572;2022-12-11T09:46:49;36.42;;;17.30;;
65613;SDS011;52283;49.292;10.572;2022-12-11T09:49:27;39.30;;;15.65;;
65613;SDS011;52283;49.292;10.572;2022-12-11T09:52:05;41.92;;;17.42;;
65613;SDS011;52283;49.292;10.572;2022-12-11T09:54:36;65.45;;;26.15;;
65613;SDS011;52283;49.292;10.572;2022-12-11T09:57:08;45.20;;;20.95;;
65613;SDS011;52283;49.292;10.572;2022-12-11T09:59:46;39.90;;;15.75;;
65613;SDS011;52283;49.292;10.572;2022-12-11T10:02:29;34.28;;;15.07;;
65613;SDS011;52283;49.292;10.572;2022-12-11T10:05:11;35.28;;;15.15;;
65613;SDS011;52283;49.292;10.572;2022-12-11T10:07:44;27.20;;;12.07;;
65613;SDS011;52283;49.292;10.572;2022-12-11T10:10:18;25.70;;;11.30;;
65613;SDS011;52283;49.292;10.572;2022-12-11T10:12:53;25.67;;;10.57;;
65613;SDS011;52283;49.292;10.572;2022-12-11T10:15:31;26.65;;;12.65;;
65613;SDS011;52283;49.292;10.572;2022-12-11T10:18:03;29.75;;;12.10;;
65613;SDS011;52283;49.292;10.572;2022-12-11T10:20:34;22.85;;;11.57;;
65613;SDS011;52283;49.292;10.572;2022-12-11T10:23:04;27.02;;;11.82;;
65613;SDS011;52283;49.292;10.572;2022-12-11T10:25:34;25.63;;;13.45;;
65613;SDS011;52283;49.292;10.572;2022-12-11T10:28:07;19.38;;;9.82;;
65613;SDS011;52283;49.292;10.572;2022-12-11T10:30:39;16.02;;;8.15;;
65613;SDS011;52283;49.292;10.572;2022-12-11T10:33:13;13.73;;;6.90;;
65613;SDS011;52283;49.292;10.572;2022-12-11T10:35:46;13.07;;;6.82;;
65613;SDS011;52283;49.292;10.572;2022-12-11T10:38:15;15.98;;;6.97;;
65613;SDS011;52283;49.292;10.572;2022-12-11T10:40:48;16.27;;;7.60;;
65613;SDS011;52283;49.292;10.572;2022-12-11T10:43:16;25.40;;;10.98;;
65613;SDS011;52283;49.292;10.572;2022-12-11T10:45:50;18.27;;;9.20;;
65613;SDS011;52283;49.292;10.572;2022-12-11T10:48:17;15.75;;;8.63;;
65613;SDS011;52283;49.292;10.572;2022-12-11T10:50:44;23.38;;;11.60;;
65613;SDS011;52283;49.292;10.572;2022-12-11T10:53:22;22.15;;;12.02;;
65613;SDS011;52283;49.292;10.572;2022-12-11T10:55:50;16.95;;;7.93;;
65613;SDS011;52283;49.292;10.572;2022-12-11T10:58:18;22.92;;;11.10;;
65613;SDS011;52283;49.292;10.572;2022-12-11T11:00:48;29.63;;;12.30;;
65613;SDS011;52283;49.292;10.572;2022-12-11T11:03:30;16.35;;;8.35;;
65613;SDS011;52283;49.292;10.572;2022-12-11T11:06:03;17.92;;;9.13;;
65613;SDS011;52283;49.292;10.572;2022-12-11T11:08:38;18.65;;;9.43;;
65613;SDS011;52283;49.292;10.572;2022-12-11T11:11:12;18.58;;;8.52;;
65613;SDS011;52283;49.292;10.572;2022-12-11T11:13:46;19.05;;;8.35;;
65613;SDS011;52283;49.292;10.572;2022-12-11T11:16:14;21.27;;;10.40;;
65613;SDS011;52283;49.292;10.572;2022-12-11T11:18:48;17.42;;;8.70;;
65613;SDS011;52283;49.292;10.572;2022-12-11T11:21:17;24.60;;;10.77;;
65613;SDS011;52283;49.292;10.572;2022-12-11T11:23:45;20.88;;;9.05;;
65613;SDS011;52283;49.292;10.572;2022-12-11T11:26:11;23.38;;;10.52;;
65613;SDS011;52283;49.292;10.572;2022-12-11T11:28:40;22.25;;;10.80;;
65613;SDS011;52283;49.292;10.572;2022-12-11T11:31:12;17.08;;;8.50;;
65613;SDS011;52283;49.292;10.572;2022-12-11T11:33:44;22.48;;;10.93;;
65613;SDS011;52283;49.292;10.572;2022-12-11T11:36:18;21.58;;;10.32;;
65613;SDS011;52283;49.292;10.572;2022-12-11T11:38:46;25.53;;;14.77;;
65613;SDS011;52283;49.292;10.572;2022-12-11T11:41:23;25.27;;;11.30;;
65613;SDS011;52283;49.292;10.572;2022-12-11T11:46:23;24.52;;;9.55;;
65613;SDS011;52283;49.292;10.572;2022-12-11T11:48:56;22.52;;;11.20;;
65613;SDS011;52283;49.292;10.572;2022-12-11T11:51:32;22.65;;;11.48;;
65613;SDS011;52283;49.292;10.572;2022-12-11T11:54:02;32.15;;;11.48;;
65613;SDS011;52283;49.292;10.572;2022-12-11T11:56:46;19.67;;;10.80;;
65613;SDS011;52283;49.292;10.572;2022-12-11T11:59:17;18.23;;;8.98;;
65613;SDS011;52283;49.292;10.572;2022-12-11T12:01:49;25.55;;;12.20;;
65613;SDS011;52283;49.292;10.572;2022-12-11T12:04:19;26.83;;;13.93;;
65613;SDS011;52283;49.292;10.572;2022-12-11T12:06:52;23.30;;;11.57;;
65613;SDS011;52283;49.292;10.572;2022-12-11T12:09:32;21.08;;;10.68;;
65613;SDS011;52283;49.292;10.572;2022-12-11T12:12:12;28.08;;;10.68;;
65613;SDS011;52283;49.292;10.572;2022-12-11T12:14:50;22.88;;;8.93;;
65613;SDS011;52283;49.292;10.572;2022-12-11T12:17:30;29.85;;;14.32;;
65613;SDS011;52283;49.292;10.572;2022-12-11T12:20:05;38.97;;;16.92;;
65613;SDS011;52283;49.292;10.572;2022-12-11T12:22:44;37.80;;;15.98;;
65613;SDS011;52283;49.292;10.572;2022-12-11T12:25:21;30.15;;;13.85;;
65613;SDS011;52283;49.292;10.572;2022-12-11T12:27:55;29.67;;;12.50;;
65613;SDS011;52283;49.292;10.572;2022-12-11T12:30:30;33.13;;;14.35;;
65613;SDS011;52283;49.292;10.572;2022-12-11T12:33:12;28.30;;;12.77;;
65613;SDS011;52283;49.292;10.572;2022-12-11T12:35:49;30.98;;;13.32;;
65613;SDS011;52283;49.292;10.572;2022-12-11T12:38:22;29.13;;;13.40;;
65613;SDS011;52283;49.292;10.572;2022-12-11T12:40:58;23.20;;;9.93;;
65613;SDS011;52283;49.292;10.572;2022-12-11T12:46:31;23.65;;;11.35;;
65613;SDS011;52283;49.292;10.572;2022-12-11T12:49:11;30.67;;;13.27;;
65613;SDS011;52283;49.292;10.572;2022-12-11T12:51:42;22.02;;;10.73;;
65613;SDS011;52283;49.292;10.572;2022-12-11T12:54:10;26.70;;;13.10;;
65613;SDS011;52283;49.292;10.572;2022-12-11T12:56:40;29.17;;;12.70;;
65613;SDS011;52283;49.292;10.572;2022-12-11T12:59:17;31.98;;;14.82;;
65613;SDS011;52283;49.292;10.572;2022-12-11T13:01:45;26.38;;;13.63;;
65613;SDS011;52283;49.292;10.572;2022-12-11T13:04:26;24.55;;;11.43;;
65613;SDS011;52283;49.292;10.572;2022-12-11T13:06:56;21.77;;;10.95;;
65613;SDS011;52283;49.292;10.572;2022-12-11T13:09:23;27.77;;;12.90;;
65613;SDS011;52283;49.292;10.572;2022-12-11T13:11:51;30.65;;;12.55;;
65613;SDS011;52283;49.292;10.572;2022-12-11T13:14:23;30.15;;;14.90;;
65613;SDS011;52283;49.292;10.572;2022-12-11T13:19:31;43.88;;;19.20;;
65613;SDS011;52283;49.292;10.572;2022-12-11T13:22:01;35.05;;;15.35;;
65613;SDS011;52283;49.292;10.572;2022-12-11T13:24:30;38.88;;;17.15;;
65613;SDS011;52283;49.292;10.572;2022-12-11T13:27:07;41.38;;;17.42;;
65613;SDS011;52283;49.292;10.572;2022-12-11T13:29:35;39.30;;;17.25;;
65613;SDS011;52283;49.292;10.572;2022-12-11T13:32:10;41.67;;;17.70;;
65613;SDS011;52283;49.292;10.572;2022-12-11T13:34:51;39.03;;;15.23;;
65613;SDS011;52283;49.292;10.572;2022-12-11T13:37:22;27.48;;;13.88;;
65613;SDS011;52283;49.292;10.572;2022-12-11T13:39:52;21.70;;;10.20;;
65613;SDS011;52283;49.292;10.572;2022-12-11T13:42:20;35.55;;;14.50;;
65613;SDS011;52283;49.292;10.572;2022-12-11T13:44:52;39.78;;;14.20;;
65613;SDS011;52283;49.292;10.572;2022-12-11T13:47:19;28.15;;;12.27;;
65613;SDS011;52283;49.292;10.572;2022-12-11T13:49:46;23.08;;;11.23;;
65613;SDS011;52283;49.292;10.572;2022-12-11T13:52:20;17.35;;;8.20;;
65613;SDS011;52283;49.292;10.572;2022-12-11T13:54:50;20.77;;;9.10;;
65613;SDS011;52283;49.292;10.572;2022-12-11T13:57:18;17.80;;;8.32;;
65613;SDS011;52283;49.292;10.572;2022-12-11T13:59:46;17.30;;;8.93;;
65613;SDS011;52283;49.292;10.572;2022-12-11T14:02:17;14.10;;;7.75;;
65613;SDS011;52283;49.292;10.572;2022-12-11T14:04:46;19.33;;;9.68;;
65613;SDS011;52283;49.292;10.572;2022-12-11T14:07:16;22.63;;;11.77;;
65613;SDS011;52283;49.292;10.572;2022-12-11T14:09:49;28.05;;;11.55;;
65613;SDS011;52283;49.292;10.572;2022-12-11T14:12:17;27.00;;;13.48;;
65613;SDS011;52283;49.292;10.572;2022-12-11T14:14:47;25.80;;;10.43;;
65613;SDS011;52283;49.292;10.572;2022-12-11T14:17:17;21.30;;;9.90;;
65613;SDS011;52283;49.292;10.572;2022-12-11T14:19:50;22.23;;;10.50;;
65613;SDS011;52283;49.292;10.572;2022-12-11T14:22:17;23.10;;;10.80;;
65613;SDS011;52283;49.292;10.572;2022-12-11T14:24:50;22.45;;;10.95;;
65613;SDS011;52283;49.292;10.572;2022-12-11T14:27:18;27.08;;;12.00;;
65613;SDS011;52283;49.292;10.572;2022-12-11T14:29:45;31.20;;;12.93;;
65613;SDS011;52283;49.292;10.572;2022-12-11T14:32:15;26.58;;;12.70;;
65613;SDS011;52283;49.292;10.572;2022-12-11T14:34:46;27.42;;;12.52;;